sensor_id;sensor_type;location;lat;lon;timestamp;pressure;altitude;pressure_sealevel;temperature;humidity
31403;BME280;18039;52.188;21.024;2023-04-27T00:01:43;77371.38;;;-141.45;80.65
31403;BME280;18039;52.188;21.024;2023-04-27T00:04:10;77367.34;;;-141.45;80.84
31403;BME280;18039;52.188;21.024;2023-04-27T00:06:41;77375.44;;;-141.45;80.75
31403;BME280;18039;52.188;21.024;2023-04-27T00:09:08;77375.44;;;-141.45;81.56
31403;BME280;18039;52.188;21.024;2023-04-27T00:11:36;77379.50;;;-141.45;81.94
31403;BME280;18039;52.188;21.024;2023-04-27T00:14:03;77379.50;;;-141.45;81.60
31403;BME280;18039;52.188;21.024;2023-04-27T00:16:30;77387.59;;;-141.45;81.92
31403;BME280;18039;52.188;21.024;2023-04-27T00:18:58;77383.56;;;-141.45;81.50
31403;BME280;18039;52.188;21.024;2023-04-27T00:21:25;77395.72;;;-141.45;81.81
31403;BME280;18039;52.188;21.024;2023-04-27T00:23:53;77395.72;;;-141.45;82.26
31403;BME280;18039;52.188;21.024;2023-04-27T00:26:20;77395.72;;;-141.45;82.39
31403;BME280;18039;52.188;21.024;2023-04-27T00:28:50;77399.78;;;-141.45;82.75
31403;BME280;18039;52.188;21.024;2023-04-27T00:31:17;77403.84;;;-141.45;82.23
31403;BME280;18039;52.188;21.024;2023-04-27T00:33:44;77411.94;;;-141.45;82.78
31403;BME280;18039;52.188;21.024;2023-04-27T00:36:15;77416.00;;;-141.45;83.24
31403;BME280;18039;52.188;21.024;2023-04-27T00:38:42;77416.00;;;-141.45;82.99
31403;BME280;18039;52.188;21.024;2023-04-27T00:41:09;77422.06;;;-141.45;83.41
31403;BME280;18039;52.188;21.024;2023-04-27T00:43:42;77418.03;;;-141.45;82.97
31403;BME280;18039;52.188;21.024;2023-04-27T00:46:11;77424.09;;;-141.45;83.25
31403;BME280;18039;52.188;21.024;2023-04-27T00:48:40;77428.16;;;-141.45;82.97
31403;BME280;18039;52.188;21.024;2023-04-27T00:51:07;77436.28;;;-141.45;83.47
31403;BME280;18039;52.188;21.024;2023-04-27T00:53:37;77436.28;;;-141.45;83.87
31403;BME280;18039;52.188;21.024;2023-04-27T00:56:06;77436.28;;;-141.45;84.17
31403;BME280;18039;52.188;21.024;2023-04-27T00:58:33;77446.41;;;-141.45;84.57
31403;BME280;18039;52.188;21.024;2023-04-27T01:01:00;77446.41;;;-141.45;84.43
31403;BME280;18039;52.188;21.024;2023-04-27T01:03:29;77456.53;;;-141.45;84.81
31403;BME280;18039;52.188;21.024;2023-04-27T01:05:58;77450.47;;;-141.45;84.41
31403;BME280;18039;52.188;21.024;2023-04-27T01:08:28;77456.53;;;-141.45;84.65
31403;BME280;18039;52.188;21.024;2023-04-27T01:10:55;77466.69;;;-141.45;84.89
31403;BME280;18039;52.188;21.024;2023-04-27T01:13:23;77460.59;;;-141.45;85.06
31403;BME280;18039;52.188;21.024;2023-04-27T01:15:50;77476.81;;;-141.45;85.02
31403;BME280;18039;52.188;21.024;2023-04-27T01:18:18;77476.81;;;-141.45;85.71
31403;BME280;18039;52.188;21.024;2023-04-27T01:20:45;77472.78;;;-141.45;85.82
31403;BME280;18039;52.188;21.024;2023-04-27T01:23:13;77480.88;;;-141.45;86.14
31403;BME280;18039;52.188;21.024;2023-04-27T01:25:43;77486.97;;;-141.45;86.04
31403;BME280;18039;52.188;21.024;2023-04-27T01:28:11;77493.03;;;-141.45;86.37
31403;BME280;18039;52.188;21.024;2023-04-27T01:30:38;77497.09;;;-141.45;86.61
31403;BME280;18039;52.188;21.024;2023-04-27T01:33:06;77491.03;;;-141.45;86.73
31403;BME280;18039;52.188;21.024;2023-04-27T01:35:33;77489.00;;;-141.45;86.57
31403;BME280;18039;52.188;21.024;2023-04-27T01:38:00;77497.09;;;-141.45;86.70
31403;BME280;18039;52.188;21.024;2023-04-27T01:40:28;77505.22;;;-141.45;86.89
31403;BME280;18039;52.188;21.024;2023-04-27T01:42:56;77505.22;;;-141.45;87.07
31403;BME280;18039;52.188;21.024;2023-04-27T01:45:23;77513.31;;;-141.45;87.38
31403;BME280;18039;52.188;21.024;2023-04-27T01:47:52;77513.31;;;-141.45;87.48
31403;BME280;18039;52.188;21.024;2023-04-27T01:50:19;77523.47;;;-141.45;87.64
31403;BME280;18039;52.188;21.024;2023-04-27T01:52:47;77525.47;;;-141.45;88.20
31403;BME280;18039;52.188;21.024;2023-04-27T01:55:14;77537.66;;;-141.45;88.04
31403;BME280;18039;52.188;21.024;2023-04-27T01:57:42;77541.72;;;-141.45;88.31
31403;BME280;18039;52.188;21.024;2023-04-27T02:00:10;77537.66;;;-141.45;88.28
31403;BME280;18039;52.188;21.024;2023-04-27T02:02:48;77541.72;;;-141.45;89.10
31403;BME280;18039;52.188;21.024;2023-04-27T02:05:17;77541.72;;;-141.45;88.40
31403;BME280;18039;52.188;21.024;2023-04-27T02:07:46;77553.88;;;-141.45;88.81
31403;BME280;18039;52.188;21.024;2023-04-27T02:10:14;77549.81;;;-141.45;88.93
31403;BME280;18039;52.188;21.024;2023-04-27T02:12:41;77547.78;;;-141.45;89.37
31403;BME280;18039;52.188;21.024;2023-04-27T02:15:08;77553.88;;;-141.45;89.05
31403;BME280;18039;52.188;21.024;2023-04-27T02:17:37;77551.84;;;-141.45;89.18
31403;BME280;18039;52.188;21.024;2023-04-27T02:20:06;77557.94;;;-141.45;89.09
31403;BME280;18039;52.188;21.024;2023-04-27T02:22:34;77564.00;;;-141.45;89.18
31403;BME280;18039;52.188;21.024;2023-04-27T02:25:01;77561.97;;;-141.45;89.08
31403;BME280;18039;52.188;21.024;2023-04-27T02:27:29;77566.03;;;-141.45;89.54
31403;BME280;18039;52.188;21.024;2023-04-27T02:29:57;77566.03;;;-141.45;89.36
31403;BME280;18039;52.188;21.024;2023-04-27T02:32:25;77566.03;;;-141.45;89.43
31403;BME280;18039;52.188;21.024;2023-04-27T02:34:53;77574.16;;;-141.45;89.65
31403;BME280;18039;52.188;21.024;2023-04-27T02:37:23;77570.09;;;-141.45;89.52
31403;BME280;18039;52.188;21.024;2023-04-27T02:39:51;77574.16;;;-141.45;89.54
31403;BME280;18039;52.188;21.024;2023-04-27T02:42:18;77574.16;;;-141.45;89.74
31403;BME280;18039;52.188;21.024;2023-04-27T02:44:46;77578.22;;;-141.45;90.11
31403;BME280;18039;52.188;21.024;2023-04-27T02:47:13;77586.31;;;-141.45;89.76
31403;BME280;18039;52.188;21.024;2023-04-27T02:49:41;77590.38;;;-141.45;90.00
31403;BME280;18039;52.188;21.024;2023-04-27T02:52:09;77594.44;;;-141.45;90.25
31403;BME280;18039;52.188;21.024;2023-04-27T02:54:36;77598.47;;;-141.45;89.96
31403;BME280;18039;52.188;21.024;2023-04-27T02:57:03;77594.44;;;-141.45;89.71
31403;BME280;18039;52.188;21.024;2023-04-27T02:59:31;77598.47;;;-141.45;89.98
31403;BME280;18039;52.188;21.024;2023-04-27T03:01:59;77602.53;;;-141.45;89.99
31403;BME280;18039;52.188;21.024;2023-04-27T03:04:26;77610.66;;;-141.45;89.62
31403;BME280;18039;52.188;21.024;2023-04-27T03:06:54;77608.63;;;-141.45;90.20
31403;BME280;18039;52.188;21.024;2023-04-27T03:09:22;77614.69;;;-141.45;89.78
31403;BME280;18039;52.188;21.024;2023-04-27T03:11:50;77618.75;;;-141.45;90.12
31403;BME280;18039;52.188;21.024;2023-04-27T03:14:19;77614.69;;;-141.45;89.95
31403;BME280;18039;52.188;21.024;2023-04-27T03:16:46;77614.69;;;-141.45;90.05
31403;BME280;18039;52.188;21.024;2023-04-27T03:19:14;77610.66;;;-141.45;90.38
31403;BME280;18039;52.188;21.024;2023-04-27T03:21:42;77610.66;;;-141.45;90.71
31403;BME280;18039;52.188;21.024;2023-04-27T03:24:09;77610.66;;;-141.45;90.17
31403;BME280;18039;52.188;21.024;2023-04-27T03:26:36;77606.59;;;-141.45;90.04
31403;BME280;18039;52.188;21.024;2023-04-27T03:29:03;77610.66;;;-141.45;90.31
31403;BME280;18039;52.188;21.024;2023-04-27T03:31:30;77606.59;;;-141.45;90.20
31403;BME280;18039;52.188;21.024;2023-04-27T03:33:58;77612.69;;;-141.45;90.45
31403;BME280;18039;52.188;21.024;2023-04-27T03:36:25;77606.59;;;-141.45;90.78
31403;BME280;18039;52.188;21.024;2023-04-27T03:38:53;77606.59;;;-141.45;90.52
31403;BME280;18039;52.188;21.024;2023-04-27T03:41:20;77602.53;;;-141.45;89.87
31403;BME280;18039;52.188;21.024;2023-04-27T03:43:47;77598.47;;;-141.45;90.64
31403;BME280;18039;52.188;21.024;2023-04-27T03:46:17;77598.47;;;-141.45;89.93
31403;BME280;18039;52.188;21.024;2023-04-27T03:48:44;77594.44;;;-141.45;90.20
31403;BME280;18039;52.188;21.024;2023-04-27T03:51:13;77590.38;;;-141.45;89.60
31403;BME280;18039;52.188;21.024;2023-04-27T03:53:43;77586.31;;;-141.45;89.73
31403;BME280;18039;52.188;21.024;2023-04-27T03:56:10;77582.25;;;-141.45;90.37
31403;BME280;18039;52.188;21.024;2023-04-27T03:58:38;77578.22;;;-141.45;90.12
31403;BME280;18039;52.188;21.024;2023-04-27T04:01:15;77578.22;;;-141.45;89.74
31403;BME280;18039;52.188;21.024;2023-04-27T04:03:43;77570.09;;;-141.45;89.41
31403;BME280;18039;52.188;21.024;2023-04-27T04:06:11;77561.97;;;-141.45;88.69
31403;BME280;18039;52.188;21.024;2023-04-27T04:08:38;77566.03;;;-141.45;88.13
31403;BME280;18039;52.188;21.024;2023-04-27T04:11:06;77566.03;;;-141.45;87.85
31403;BME280;18039;52.188;21.024;2023-04-27T04:13:34;77570.09;;;-141.45;88.14
31403;BME280;18039;52.188;21.024;2023-04-27T04:16:07;77570.09;;;-141.45;88.39
31403;BME280;18039;52.188;21.024;2023-04-27T04:18:35;77557.94;;;-141.45;86.84
31403;BME280;18039;52.188;21.024;2023-04-27T04:21:04;77557.94;;;-141.45;86.70
31403;BME280;18039;52.188;21.024;2023-04-27T04:23:31;77557.94;;;-141.45;86.65
31403;BME280;18039;52.188;21.024;2023-04-27T04:25:59;77561.97;;;-141.45;86.78
31403;BME280;18039;52.188;21.024;2023-04-27T04:28:32;77553.88;;;-141.45;86.41
31403;BME280;18039;52.188;21.024;2023-04-27T04:31:00;77547.78;;;-141.45;86.02
31403;BME280;18039;52.188;21.024;2023-04-27T04:33:27;77541.72;;;-141.45;86.10
31403;BME280;18039;52.188;21.024;2023-04-27T04:35:55;77533.59;;;-141.45;86.17
31403;BME280;18039;52.188;21.024;2023-04-27T04:38:22;77517.38;;;-141.45;86.36
31403;BME280;18039;52.188;21.024;2023-04-27T04:40:50;77505.22;;;-141.45;85.62
31403;BME280;18039;52.188;21.024;2023-04-27T04:43:18;77501.16;;;-141.45;84.57
31403;BME280;18039;52.188;21.024;2023-04-27T04:45:47;77493.03;;;-141.45;84.83
31403;BME280;18039;52.188;21.024;2023-04-27T04:48:14;77476.81;;;-141.45;84.71
31403;BME280;18039;52.188;21.024;2023-04-27T04:50:45;77464.66;;;-141.45;84.70
31403;BME280;18039;52.188;21.024;2023-04-27T04:53:12;77448.44;;;-141.45;84.55
31403;BME280;18039;52.188;21.024;2023-04-27T04:55:41;77428.16;;;-141.45;83.45
31403;BME280;18039;52.188;21.024;2023-04-27T04:58:08;77407.88;;;-141.45;83.21
31403;BME280;18039;52.188;21.024;2023-04-27T05:00:36;77387.59;;;-141.45;82.61
31403;BME280;18039;52.188;21.024;2023-04-27T05:03:04;77367.34;;;-141.45;82.34
31403;BME280;18039;52.188;21.024;2023-04-27T05:05:34;77371.38;;;-141.45;79.29
31403;BME280;18039;52.188;21.024;2023-04-27T05:08:01;77379.50;;;-141.45;80.13
31403;BME280;18039;52.188;21.024;2023-04-27T05:10:29;77375.44;;;-141.45;79.79
31403;BME280;18039;52.188;21.024;2023-04-27T05:12:56;77375.44;;;-141.45;79.01
31403;BME280;18039;52.188;21.024;2023-04-27T05:15:24;77373.41;;;-141.45;79.51
31403;BME280;18039;52.188;21.024;2023-04-27T05:17:51;77371.38;;;-141.45;78.31
31403;BME280;18039;52.188;21.024;2023-04-27T05:20:20;77355.16;;;-141.45;78.34
31403;BME280;18039;52.188;21.024;2023-04-27T05:22:47;77351.13;;;-141.45;77.87
31403;BME280;18039;52.188;21.024;2023-04-27T05:25:15;77336.91;;;-141.45;77.45
31403;BME280;18039;52.188;21.024;2023-04-27T05:27:42;77326.78;;;-141.45;77.22
31403;BME280;18039;52.188;21.024;2023-04-27T05:30:10;77326.78;;;-141.45;76.68
31403;BME280;18039;52.188;21.024;2023-04-27T05:32:38;77314.63;;;-141.45;77.29
31403;BME280;18039;52.188;21.024;2023-04-27T05:35:06;77294.34;;;-141.45;77.61
31403;BME280;18039;52.188;21.024;2023-04-27T05:37:33;77265.97;;;-141.45;77.32
31403;BME280;18039;52.188;21.024;2023-04-27T05:40:00;77253.78;;;-141.45;75.93
31403;BME280;18039;52.188;21.024;2023-04-27T05:42:27;77229.47;;;-141.45;76.34
31403;BME280;18039;52.188;21.024;2023-04-27T05:44:55;77209.19;;;-141.45;76.29
31403;BME280;18039;52.188;21.024;2023-04-27T05:47:23;77188.91;;;-141.45;75.94
31403;BME280;18039;52.188;21.024;2023-04-27T05:49:54;77180.81;;;-141.45;74.57
31403;BME280;18039;52.188;21.024;2023-04-27T05:52:21;77180.81;;;-141.45;73.14
31403;BME280;18039;52.188;21.024;2023-04-27T05:54:56;77184.84;;;-141.45;72.94
31403;BME280;18039;52.188;21.024;2023-04-27T05:57:24;77176.75;;;-141.45;71.87
31403;BME280;18039;52.188;21.024;2023-04-27T05:59:52;77174.72;;;-141.45;71.70
31403;BME280;18039;52.188;21.024;2023-04-27T06:02:19;77172.69;;;-141.45;72.25
31403;BME280;18039;52.188;21.024;2023-04-27T06:04:47;77160.53;;;-141.45;72.42
31403;BME280;18039;52.188;21.024;2023-04-27T06:07:15;77156.47;;;-141.45;71.00
31403;BME280;18039;52.188;21.024;2023-04-27T06:09:42;77156.47;;;-141.45;70.42
31403;BME280;18039;52.188;21.024;2023-04-27T06:12:10;77136.19;;;-141.45;69.74
31403;BME280;18039;52.188;21.024;2023-04-27T06:14:38;77140.25;;;-141.45;70.08
31403;BME280;18039;52.188;21.024;2023-04-27T06:17:05;77132.16;;;-141.45;69.57
31403;BME280;18039;52.188;21.024;2023-04-27T06:19:32;77119.97;;;-141.45;69.99
31403;BME280;18039;52.188;21.024;2023-04-27T06:21:59;77107.81;;;-141.45;69.77
31403;BME280;18039;52.188;21.024;2023-04-27T06:24:27;77091.59;;;-141.45;70.04
31403;BME280;18039;52.188;21.024;2023-04-27T06:26:54;77079.44;;;-141.45;69.78
31403;BME280;18039;52.188;21.024;2023-04-27T06:29:22;77063.22;;;-141.45;69.25
31403;BME280;18039;52.188;21.024;2023-04-27T06:31:49;77063.22;;;-141.45;68.24
31403;BME280;18039;52.188;21.024;2023-04-27T06:34:17;77059.16;;;-141.45;67.65
31403;BME280;18039;52.188;21.024;2023-04-27T06:36:44;77055.09;;;-141.45;66.46
31403;BME280;18039;52.188;21.024;2023-04-27T06:39:12;77067.28;;;-141.45;65.65
31403;BME280;18039;52.188;21.024;2023-04-27T06:41:40;77065.25;;;-141.45;66.39
31403;BME280;18039;52.188;21.024;2023-04-27T06:44:17;77063.22;;;-141.45;66.78
31403;BME280;18039;52.188;21.024;2023-04-27T06:46:45;77073.34;;;-141.45;65.96
31403;BME280;18039;52.188;21.024;2023-04-27T06:49:13;77063.22;;;-141.45;66.38
31403;BME280;18039;52.188;21.024;2023-04-27T06:51:41;77067.28;;;-141.45;64.47
31403;BME280;18039;52.188;21.024;2023-04-27T06:54:08;77071.31;;;-141.45;65.27
31403;BME280;18039;52.188;21.024;2023-04-27T06:56:36;77055.09;;;-141.45;65.92
31403;BME280;18039;52.188;21.024;2023-04-27T06:59:03;77055.09;;;-141.45;65.54
31403;BME280;18039;52.188;21.024;2023-04-27T07:01:31;77044.97;;;-141.45;66.54
31403;BME280;18039;52.188;21.024;2023-04-27T07:03:58;77038.88;;;-141.45;66.66
31403;BME280;18039;52.188;21.024;2023-04-27T07:06:26;77030.78;;;-141.45;65.81
31403;BME280;18039;52.188;21.024;2023-04-27T07:08:55;77014.56;;;-141.45;64.75
31403;BME280;18039;52.188;21.024;2023-04-27T07:11:22;77018.63;;;-141.45;64.84
31403;BME280;18039;52.188;21.024;2023-04-27T07:13:49;77006.44;;;-141.45;64.73
31403;BME280;18039;52.188;21.024;2023-04-27T07:16:18;76998.34;;;-141.45;65.44
31403;BME280;18039;52.188;21.024;2023-04-27T07:18:45;76982.13;;;-141.45;64.70
31403;BME280;18039;52.188;21.024;2023-04-27T07:21:13;76974.00;;;-141.45;64.56
31403;BME280;18039;52.188;21.024;2023-04-27T07:23:40;76976.03;;;-141.45;63.56
31403;BME280;18039;52.188;21.024;2023-04-27T07:26:08;76963.88;;;-141.45;63.93
31403;BME280;18039;52.188;21.024;2023-04-27T07:28:36;76965.91;;;-141.45;63.25
31403;BME280;18039;52.188;21.024;2023-04-27T07:31:06;76949.69;;;-141.45;63.61
31403;BME280;18039;52.188;21.024;2023-04-27T07:33:33;76937.53;;;-141.45;63.26
31403;BME280;18039;52.188;21.024;2023-04-27T07:36:01;76939.53;;;-141.45;62.07
31403;BME280;18039;52.188;21.024;2023-04-27T07:38:30;76929.41;;;-141.45;62.99
31403;BME280;18039;52.188;21.024;2023-04-27T07:40:59;76921.31;;;-141.45;61.78
31403;BME280;18039;52.188;21.024;2023-04-27T07:43:28;76909.13;;;-141.45;63.07
31403;BME280;18039;52.188;21.024;2023-04-27T07:45:55;76909.13;;;-141.45;62.92
31403;BME280;18039;52.188;21.024;2023-04-27T07:48:26;76892.91;;;-141.45;62.23
31403;BME280;18039;52.188;21.024;2023-04-27T07:50:54;76888.88;;;-141.45;62.00
31403;BME280;18039;52.188;21.024;2023-04-27T07:53:22;76888.88;;;-141.45;60.84
31403;BME280;18039;52.188;21.024;2023-04-27T07:55:49;76888.88;;;-141.45;60.79
31403;BME280;18039;52.188;21.024;2023-04-27T07:58:18;76884.81;;;-141.45;60.78
31403;BME280;18039;52.188;21.024;2023-04-27T08:00:45;76884.81;;;-141.45;60.84
31403;BME280;18039;52.188;21.024;2023-04-27T08:03:13;76888.88;;;-141.45;60.90
31403;BME280;18039;52.188;21.024;2023-04-27T08:05:40;76876.69;;;-141.45;59.73
31403;BME280;18039;52.188;21.024;2023-04-27T08:08:08;76866.56;;;-141.45;60.24
31403;BME280;18039;52.188;21.024;2023-04-27T08:10:36;76844.25;;;-141.45;59.05
31403;BME280;18039;52.188;21.024;2023-04-27T08:13:04;76819.94;;;-141.45;58.75
31403;BME280;18039;52.188;21.024;2023-04-27T08:15:31;76826.00;;;-141.45;58.09
31403;BME280;18039;52.188;21.024;2023-04-27T08:17:58;76830.06;;;-141.45;58.32
31403;BME280;18039;52.188;21.024;2023-04-27T08:20:26;76834.13;;;-141.45;57.61
31403;BME280;18039;52.188;21.024;2023-04-27T08:22:53;76815.88;;;-141.45;57.48
31403;BME280;18039;52.188;21.024;2023-04-27T08:25:21;76807.78;;;-141.45;57.58
31403;BME280;18039;52.188;21.024;2023-04-27T08:27:48;76791.56;;;-141.45;57.89
31403;BME280;18039;52.188;21.024;2023-04-27T08:30:16;76819.94;;;-141.45;55.64
31403;BME280;18039;52.188;21.024;2023-04-27T08:32:43;76838.19;;;-141.45;57.06
31403;BME280;18039;52.188;21.024;2023-04-27T08:35:11;76821.97;;;-141.45;58.44
31403;BME280;18039;52.188;21.024;2023-04-27T08:37:40;76791.56;;;-141.45;57.61
31403;BME280;18039;52.188;21.024;2023-04-27T08:40:08;76742.91;;;-141.45;57.30
31403;BME280;18039;52.188;21.024;2023-04-27T08:42:37;76734.78;;;-141.45;56.81
31403;BME280;18039;52.188;21.024;2023-04-27T08:45:08;76714.53;;;-141.45;55.27
31403;BME280;18039;52.188;21.024;2023-04-27T08:47:37;76714.53;;;-141.45;55.87
31403;BME280;18039;52.188;21.024;2023-04-27T08:50:10;76690.19;;;-141.45;55.76
31403;BME280;18039;52.188;21.024;2023-04-27T08:52:38;76665.88;;;-141.45;53.79
31403;BME280;18039;52.188;21.024;2023-04-27T08:55:06;76673.97;;;-141.45;52.39
31403;BME280;18039;52.188;21.024;2023-04-27T08:57:34;76686.13;;;-141.45;52.33
31403;BME280;18039;52.188;21.024;2023-04-27T09:00:02;76688.16;;;-141.45;51.43
31403;BME280;18039;52.188;21.024;2023-04-27T09:02:46;76706.41;;;-141.45;51.22
31403;BME280;18039;52.188;21.024;2023-04-27T09:05:15;76702.34;;;-141.45;52.64
31403;BME280;18039;52.188;21.024;2023-04-27T09:08:04;76682.09;;;-141.45;52.02
31403;BME280;18039;52.188;21.024;2023-04-27T09:10:47;76633.44;;;-141.45;51.65
31403;BME280;18039;52.188;21.024;2023-04-27T09:13:15;76601.00;;;-141.45;51.21
31403;BME280;18039;52.188;21.024;2023-04-27T09:15:50;76592.91;;;-141.45;49.85
31403;BME280;18039;52.188;21.024;2023-04-27T09:18:20;76580.72;;;-141.45;50.13
31403;BME280;18039;52.188;21.024;2023-04-27T09:20:51;76562.50;;;-141.45;50.09
31403;BME280;18039;52.188;21.024;2023-04-27T09:23:31;76584.78;;;-141.45;50.10
31403;BME280;18039;52.188;21.024;2023-04-27T09:26:00;76633.44;;;-141.45;50.67
31403;BME280;18039;52.188;21.024;2023-04-27T09:28:29;76673.97;;;-141.45;50.52
31403;BME280;18039;52.188;21.024;2023-04-27T09:31:00;76718.56;;;-141.45;51.23
31403;BME280;18039;52.188;21.024;2023-04-27T09:33:32;76742.91;;;-141.45;52.59
31403;BME280;18039;52.188;21.024;2023-04-27T09:36:04;76742.91;;;-141.45;53.99
31403;BME280;18039;52.188;21.024;2023-04-27T09:38:33;76742.91;;;-141.45;53.39
31403;BME280;18039;52.188;21.024;2023-04-27T09:41:00;76734.78;;;-141.45;53.64
31403;BME280;18039;52.188;21.024;2023-04-27T09:43:28;76734.78;;;-141.45;53.76
31403;BME280;18039;52.188;21.024;2023-04-27T09:45:57;76710.47;;;-141.45;54.34
31403;BME280;18039;52.188;21.024;2023-04-27T09:48:25;76686.13;;;-141.45;52.69
31403;BME280;18039;52.188;21.024;2023-04-27T09:50:53;76700.34;;;-141.45;53.00
31403;BME280;18039;52.188;21.024;2023-04-27T09:53:35;76706.41;;;-141.45;52.80
31403;BME280;18039;52.188;21.024;2023-04-27T09:56:41;76726.69;;;-141.45;53.30
31403;BME280;18039;52.188;21.024;2023-04-27T09:59:28;76726.69;;;-141.45;53.54
31403;BME280;18039;52.188;21.024;2023-04-27T10:02:01;76759.13;;;-141.45;55.19
31403;BME280;18039;52.188;21.024;2023-04-27T10:05:13;76832.09;;;-141.45;57.10
31403;BME280;18039;52.188;21.024;2023-04-27T10:07:44;76901.03;;;-141.45;58.23
31403;BME280;18039;52.188;21.024;2023-04-27T10:10:16;76933.47;;;-141.45;59.73
31403;BME280;18039;52.188;21.024;2023-04-27T10:12:59;76933.47;;;-141.45;61.04
31403;BME280;18039;52.188;21.024;2023-04-27T10:15:28;76915.22;;;-141.45;61.64
31403;BME280;18039;52.188;21.024;2023-04-27T10:18:02;76884.81;;;-141.45;59.81
31403;BME280;18039;52.188;21.024;2023-04-27T10:20:33;76856.44;;;-141.45;56.58
31403;BME280;18039;52.188;21.024;2023-04-27T10:23:01;76846.28;;;-141.45;56.75
31403;BME280;18039;52.188;21.024;2023-04-27T10:25:36;76840.22;;;-141.45;54.97
31403;BME280;18039;52.188;21.024;2023-04-27T10:28:04;76838.19;;;-141.45;54.82
31403;BME280;18039;52.188;21.024;2023-04-27T10:30:36;76840.22;;;-141.45;52.68
31403;BME280;18039;52.188;21.024;2023-04-27T10:33:08;76832.09;;;-141.45;50.93
31403;BME280;18039;52.188;21.024;2023-04-27T10:35:44;76824.00;;;-141.45;49.95
31403;BME280;18039;52.188;21.024;2023-04-27T10:38:25;76807.78;;;-141.45;50.28
31403;BME280;18039;52.188;21.024;2023-04-27T10:43:27;76815.88;;;-141.45;50.04
31403;BME280;18039;52.188;21.024;2023-04-27T10:46:14;76799.66;;;-141.45;50.29
31403;BME280;18039;52.188;21.024;2023-04-27T10:48:43;76779.38;;;-141.45;49.90
31403;BME280;18039;52.188;21.024;2023-04-27T10:51:15;76751.00;;;-141.45;49.87
31403;BME280;18039;52.188;21.024;2023-04-27T10:53:44;76751.00;;;-141.45;51.12
31403;BME280;18039;52.188;21.024;2023-04-27T10:56:11;76726.69;;;-141.45;51.16
31403;BME280;18039;52.188;21.024;2023-04-27T10:58:39;76722.63;;;-141.45;51.13
31403;BME280;18039;52.188;21.024;2023-04-27T11:01:25;76710.47;;;-141.45;51.14
31403;BME280;18039;52.188;21.024;2023-04-27T11:03:58;76694.25;;;-141.45;51.17
31403;BME280;18039;52.188;21.024;2023-04-27T11:06:27;76669.94;;;-141.45;49.87
31403;BME280;18039;52.188;21.024;2023-04-27T11:08:55;76653.72;;;-141.45;50.41
31403;BME280;18039;52.188;21.024;2023-04-27T11:11:23;76635.47;;;-141.45;50.71
31403;BME280;18039;52.188;21.024;2023-04-27T11:13:51;76637.50;;;-141.45;49.45
31403;BME280;18039;52.188;21.024;2023-04-27T11:16:22;76645.59;;;-141.45;49.56
31403;BME280;18039;52.188;21.024;2023-04-27T11:18:50;76649.66;;;-141.45;51.34
31403;BME280;18039;52.188;21.024;2023-04-27T11:21:18;76657.75;;;-141.45;51.34
31403;BME280;18039;52.188;21.024;2023-04-27T11:23:48;76694.25;;;-141.45;51.50
31403;BME280;18039;52.188;21.024;2023-04-27T11:26:16;76730.75;;;-141.45;53.31
31403;BME280;18039;52.188;21.024;2023-04-27T11:29:07;76742.91;;;-141.45;52.42
31403;BME280;18039;52.188;21.024;2023-04-27T11:31:46;76759.13;;;-141.45;51.11
31403;BME280;18039;52.188;21.024;2023-04-27T11:34:20;76763.16;;;-141.45;50.80
31403;BME280;18039;52.188;21.024;2023-04-27T11:37:02;76769.25;;;-141.45;51.89
31403;BME280;18039;52.188;21.024;2023-04-27T11:39:36;76734.78;;;-141.45;51.26
31403;BME280;18039;52.188;21.024;2023-04-27T11:42:21;76734.78;;;-141.45;52.05
31403;BME280;18039;52.188;21.024;2023-04-27T11:44:56;76720.59;;;-141.45;51.06
31403;BME280;18039;52.188;21.024;2023-04-27T11:47:26;76706.41;;;-141.45;51.79
31403;BME280;18039;52.188;21.024;2023-04-27T11:49:59;76690.19;;;-141.45;49.21
31403;BME280;18039;52.188;21.024;2023-04-27T11:52:33;76702.34;;;-141.45;49.57
31403;BME280;18039;52.188;21.024;2023-04-27T11:55:02;76694.25;;;-141.45;48.99
31403;BME280;18039;52.188;21.024;2023-04-27T11:57:34;76680.06;;;-141.45;48.52
31403;BME280;18039;52.188;21.024;2023-04-27T12:00:05;76669.94;;;-141.45;48.74
31403;BME280;18039;52.188;21.024;2023-04-27T12:02:42;76667.91;;;-141.45;47.77
31403;BME280;18039;52.188;21.024;2023-04-27T12:05:10;76678.03;;;-141.45;48.14
31403;BME280;18039;52.188;21.024;2023-04-27T12:07:39;76649.66;;;-141.45;49.47
31403;BME280;18039;52.188;21.024;2023-04-27T12:10:07;76598.97;;;-141.45;48.77
31403;BME280;18039;52.188;21.024;2023-04-27T12:12:35;76538.16;;;-141.45;47.43
31403;BME280;18039;52.188;21.024;2023-04-27T12:15:02;76491.53;;;-141.45;46.86
31403;BME280;18039;52.188;21.024;2023-04-27T12:17:30;76483.44;;;-141.45;45.53
31403;BME280;18039;52.188;21.024;2023-04-27T12:19:58;76507.75;;;-141.45;45.59
31403;BME280;18039;52.188;21.024;2023-04-27T12:22:26;76544.25;;;-141.45;45.60
31403;BME280;18039;52.188;21.024;2023-04-27T12:24:53;76562.50;;;-141.45;46.31
31403;BME280;18039;52.188;21.024;2023-04-27T12:27:20;76584.78;;;-141.45;46.52
31403;BME280;18039;52.188;21.024;2023-04-27T12:29:47;76609.09;;;-141.45;46.63
31403;BME280;18039;52.188;21.024;2023-04-27T12:32:15;76611.13;;;-141.45;47.17
31403;BME280;18039;52.188;21.024;2023-04-27T12:34:42;76592.91;;;-141.45;47.55
31403;BME280;18039;52.188;21.024;2023-04-27T12:37:09;76625.31;;;-141.45;47.14
31403;BME280;18039;52.188;21.024;2023-04-27T12:39:36;76611.13;;;-141.45;47.13
31403;BME280;18039;52.188;21.024;2023-04-27T12:42:04;76605.06;;;-141.45;46.82
31403;BME280;18039;52.188;21.024;2023-04-27T12:44:32;76592.91;;;-141.45;47.17